createdAt,value
2022-10-29T04:30:38.921Z,93.84
2022-10-29T04:31:38.664Z,93.43
2022-10-29T04:32:38.877Z,93.43
2022-10-29T04:33:38.610Z,93.23
2022-10-29T04:34:38.672Z,93.43
2022-10-29T04:35:38.620Z,93.23
2022-10-29T04:36:38.646Z,93.54
2022-10-29T04:37:38.664Z,93.59
2022-10-29T04:38:38.565Z,93.54
2022-10-29T04:39:38.545Z,93.13
2022-10-29T04:40:38.524Z,93.94
2022-10-29T04:41:38.616Z,94.04
2022-10-29T04:42:38.518Z,93.94
2022-10-29T04:43:38.462Z,93.94
2022-10-29T04:44:38.573Z,93.63
2022-10-29T04:45:38.558Z,93.63
2022-10-29T04:46:38.442Z,93.39
2022-10-29T04:47:38.461Z,93.63
2022-10-29T04:48:38.560Z,93.43
2022-10-29T04:49:38.429Z,93.84
2022-10-29T04:50:38.394Z,93.29
2022-10-29T04:51:38.433Z,93.23
2022-10-29T04:52:38.383Z,93.19
2022-10-29T04:53:38.389Z,93.03
2022-10-29T04:54:38.371Z,93.19
2022-10-29T04:55:38.366Z,92.99
2022-10-29T04:56:38.485Z,93.39
2022-10-29T04:57:38.361Z,93.29
2022-10-29T04:58:38.314Z,93.49
2022-10-29T04:59:38.306Z,93.19
2022-10-29T05:00:38.374Z,92.79
2022-10-29T05:01:38.305Z,92.99
2022-10-29T05:02:38.278Z,92.99
2022-10-29T05:03:38.248Z,93.19
2022-10-29T05:04:38.236Z,93.08
2022-10-29T05:05:38.287Z,92.79
2022-10-29T05:06:38.221Z,92.88
2022-10-29T05:07:38.226Z,92.88
2022-10-29T05:08:38.208Z,93.19
2022-10-29T05:09:38.205Z,92.79
2022-10-29T05:10:38.222Z,92.44
2022-10-29T05:11:38.169Z,92.48
2022-10-29T05:12:38.182Z,92.58
2022-10-29T05:13:38.305Z,92.38
2022-10-29T05:14:38.150Z,92.18
2022-10-29T05:15:38.200Z,92.28
2022-10-29T05:16:38.137Z,92.03
2022-10-29T05:17:38.168Z,92.13
2022-10-29T05:18:38.101Z,92.58
2022-10-29T05:19:38.103Z,92.64
2022-10-29T05:20:38.100Z,92.68
2022-10-29T05:21:38.161Z,92.33
2022-10-29T05:22:38.041Z,92.54
2022-10-29T05:23:38.097Z,92.33
2022-10-29T05:24:38.027Z,92.33
2022-10-29T05:25:38.039Z,92.33
2022-10-29T05:26:38.087Z,92.44
2022-10-29T05:27:38.008Z,92.44
2022-10-29T05:28:38.017Z,92.33
2022-10-29T05:29:38.007Z,92.54
2022-10-29T05:30:38.027Z,92.74
2022-10-29T05:31:37.947Z,92.33
2022-10-29T05:32:38.089Z,92.64
2022-10-29T05:33:37.958Z,92.33
2022-10-29T05:34:40.648Z,92.44
2022-10-29T05:35:37.910Z,92.44
2022-10-29T05:36:37.914Z,92.54
2022-10-29T05:37:37.884Z,92.64
2022-10-29T05:38:37.915Z,92.64
2022-10-29T05:39:37.875Z,92.54
2022-10-29T05:40:37.898Z,92.54
2022-10-29T05:41:37.893Z,92.33
2022-10-29T05:42:37.853Z,92.38
2022-10-29T05:43:37.895Z,92.13
2022-10-29T05:44:37.802Z,92.18
2022-10-29T05:45:37.798Z,92.58
2022-10-29T05:46:37.927Z,92.33
2022-10-29T05:47:37.772Z,92.24
2022-10-29T05:48:37.801Z,92.44
2022-10-29T05:49:37.793Z,92.24
2022-10-29T05:50:37.750Z,92.68
2022-10-29T05:51:37.808Z,92.54
2022-10-29T05:52:37.753Z,92.79
2022-10-29T05:53:37.750Z,92.48
2022-10-29T05:54:37.789Z,92.38
2022-10-29T05:55:37.726Z,92.38
2022-10-29T05:56:37.754Z,92.48
2022-10-29T05:57:37.664Z,92.28
2022-10-29T05:58:38.290Z,92.68
2022-10-29T05:59:37.718Z,91.87
2022-10-29T06:00:39.235Z,92.08
2022-10-29T06:01:37.800Z,92.08
2022-10-29T06:02:37.709Z,92.58
2022-10-29T06:03:37.740Z,92.48
2022-10-29T06:04:37.587Z,92.08
2022-10-29T06:05:37.632Z,92.48
2022-10-29T06:06:37.632Z,93.19
2022-10-29T06:07:37.566Z,92.28
2022-10-29T06:08:37.573Z,92.28
2022-10-29T06:09:37.656Z,92.28
2022-10-29T06:10:37.533Z,92.38
2022-10-29T06:11:37.513Z,92.38
2022-10-29T06:12:37.501Z,92.58
2022-10-29T06:13:37.498Z,92.68
2022-10-29T06:14:37.578Z,92.48
2022-10-29T06:15:37.587Z,92.38
2022-10-29T06:16:37.483Z,92.58
2022-10-29T06:17:37.743Z,92.38
2022-10-29T06:18:37.615Z,93.19
2022-10-29T06:19:37.480Z,93.29
2022-10-29T06:20:37.814Z,92.88
2022-10-29T06:21:37.432Z,92.79
2022-10-29T06:22:37.422Z,93.08
2022-10-29T06:23:37.412Z,92.68
2022-10-29T06:24:37.394Z,93.08
2022-10-29T06:25:37.376Z,92.79
2022-10-29T06:26:37.379Z,92.88
2022-10-29T06:27:37.352Z,92.38
2022-10-29T06:28:37.355Z,92.28
2022-10-29T06:29:37.337Z,92.68
2022-10-29T06:30:37.617Z,92.28
2022-10-29T06:31:37.311Z,92.18
2022-10-29T06:32:37.284Z,93.29
2022-10-29T06:33:37.294Z,92.28
2022-10-29T06:34:37.270Z,91.97
2022-10-29T06:35:37.259Z,92.18
2022-10-29T06:36:37.450Z,92.48
2022-10-29T06:37:37.251Z,92.48
2022-10-29T06:38:37.255Z,92.58
2022-10-29T06:39:37.212Z,92.18
2022-10-29T06:40:37.246Z,92.03
2022-10-29T06:41:37.194Z,92.64
2022-10-29T06:42:37.184Z,92.38
2022-10-29T06:43:37.168Z,92.44
2022-10-29T06:44:37.187Z,92.64
2022-10-29T06:45:37.163Z,91.83
2022-10-29T06:46:37.243Z,92.44
2022-10-29T06:47:37.129Z,92.13
2022-10-29T06:48:37.123Z,92.24
2022-10-29T06:49:37.156Z,91.93
2022-10-29T06:50:37.095Z,91.99
2022-10-29T06:51:37.103Z,91.99
2022-10-29T06:52:37.107Z,91.28
2022-10-29T06:53:37.072Z,91.53
2022-10-29T06:54:37.064Z,91.69
2022-10-29T06:55:37.193Z,91.58
2022-10-29T06:56:37.089Z,91.49
2022-10-29T06:57:37.030Z,91.38
2022-10-29T06:58:37.121Z,91.18
2022-10-29T06:59:37.016Z,90.98
2022-10-29T07:00:37.121Z,91.18
2022-10-29T07:01:37.039Z,91.28
2022-10-29T07:02:36.995Z,90.98
2022-10-29T07:03:36.995Z,90.98
2022-10-29T07:04:36.978Z,91.49
2022-10-29T07:05:37.050Z,91.28
2022-10-29T07:06:36.914Z,91.08
2022-10-29T07:07:36.921Z,90.53
2022-10-29T07:08:36.897Z,90.43
2022-10-29T07:09:36.915Z,90.63
2022-10-29T07:10:36.902Z,90.33
2022-10-29T07:11:36.894Z,90.73
2022-10-29T07:12:36.903Z,89.72
2022-10-29T07:13:36.855Z,90.03
2022-10-29T07:14:36.847Z,89.32
2022-10-29T07:15:36.865Z,89.92
2022-10-29T07:16:36.832Z,89.72
2022-10-29T07:17:36.803Z,89.42
2022-10-29T07:18:36.840Z,89.17
2022-10-29T07:19:36.778Z,89.72
2022-10-29T07:20:36.810Z,89.72
2022-10-29T07:21:36.766Z,89.22
2022-10-29T07:22:36.809Z,89.17
2022-10-29T07:23:36.743Z,89.17
2022-10-29T07:24:36.776Z,89.48
2022-10-29T07:25:36.808Z,89.28
2022-10-29T07:26:36.720Z,89.48
2022-10-29T07:27:36.772Z,88.57
2022-10-29T07:28:36.699Z,89.17
2022-10-29T07:29:36.671Z,89.28
2022-10-29T07:30:36.679Z,89.37
2022-10-29T07:31:36.699Z,89.48
2022-10-29T07:32:36.683Z,89.37
2022-10-29T07:33:36.703Z,89.17
2022-10-29T07:34:36.635Z,88.57
2022-10-29T07:35:36.658Z,88.81
2022-10-29T07:36:36.638Z,88.47
2022-10-29T07:37:36.591Z,88.77
2022-10-29T07:38:36.622Z,88.57
2022-10-29T07:39:36.567Z,89.37
2022-10-29T07:40:36.631Z,89.28
2022-10-29T07:41:36.568Z,88.97
2022-10-29T07:42:36.552Z,89.07
2022-10-29T07:43:36.558Z,89.37
2022-10-29T07:44:36.525Z,88.57
2022-10-29T07:45:36.513Z,88.47
2022-10-29T07:46:36.545Z,88.47
2022-10-29T07:47:36.477Z,88.87
2022-10-29T07:48:36.471Z,88.57
2022-10-29T07:49:36.487Z,89.58
2022-10-29T07:50:36.461Z,89.28
2022-10-29T07:51:36.456Z,89.37
2022-10-29T07:52:36.471Z,89.28
2022-10-29T07:53:36.485Z,88.77
2022-10-29T07:54:36.465Z,88.67
2022-10-29T07:55:36.454Z,88.67
2022-10-29T07:56:36.433Z,89.48
2022-10-29T07:57:36.372Z,89.37
2022-10-29T07:58:36.436Z,88.37
2022-10-29T07:59:36.437Z,88.97
2022-10-29T08:00:36.343Z,88.47
2022-10-29T08:01:36.474Z,88.87
2022-10-29T08:02:36.337Z,88.67
2022-10-29T08:03:36.314Z,88.67
2022-10-29T08:04:36.315Z,88.77
2022-10-29T08:05:36.285Z,88.77
2022-10-29T08:06:36.301Z,88.47
2022-10-29T08:07:36.358Z,88.47
2022-10-29T08:08:36.255Z,88.47
2022-10-29T08:09:36.267Z,88.57
2022-10-29T08:10:36.256Z,88.63
2022-10-29T08:11:36.292Z,88.97
2022-10-29T08:12:36.261Z,89.17
2022-10-29T08:13:36.402Z,88.57
2022-10-29T08:14:36.225Z,88.67
2022-10-29T08:15:36.177Z,88.32
2022-10-29T08:16:36.192Z,88.63
2022-10-29T08:17:36.177Z,88.43
2022-10-29T08:18:36.195Z,88.43
2022-10-29T08:19:36.231Z,89.03
2022-10-29T08:20:36.156Z,88.53
2022-10-29T08:21:36.146Z,88.53
2022-10-29T08:22:36.127Z,88.43
2022-10-29T08:23:36.188Z,88.63
2022-10-29T08:24:36.079Z,88.53
2022-10-29T08:25:36.115Z,88.53
2022-10-29T08:26:36.104Z,88.12
2022-10-29T08:27:36.051Z,88.02
2022-10-29T08:28:36.091Z,87.82
2022-10-29T08:29:36.040Z,88.23
2022-10-29T08:30:36.027Z,88.02
2022-10-29T08:31:36.045Z,88.12
2022-10-29T08:32:36.045Z,88.43
2022-10-29T08:33:35.979Z,87.62
2022-10-29T08:34:35.984Z,87.62
2022-10-29T08:35:35.970Z,87.48
2022-10-29T08:36:35.944Z,89.13
2022-10-29T08:37:35.983Z,88.32
2022-10-29T08:38:35.968Z,88.89
2022-10-29T08:39:35.910Z,88.53
2022-10-29T08:40:35.909Z,87.88
2022-10-29T08:41:35.903Z,87.92
2022-10-29T08:42:35.947Z,87.78
2022-10-29T08:43:35.861Z,88.59
2022-10-29T08:44:35.869Z,87.78
2022-10-29T08:45:35.896Z,87.48
2022-10-29T08:46:35.859Z,88.28
2022-10-29T08:47:35.824Z,88.08
2022-10-29T08:48:35.829Z,86.97
2022-10-29T08:49:35.802Z,87.58
2022-10-29T08:50:35.809Z,87.43
2022-10-29T08:51:35.788Z,87.84
2022-10-29T08:52:35.772Z,86.93
2022-10-29T08:53:35.800Z,88.08
2022-10-29T08:54:35.965Z,87.68
2022-10-29T09:01:25.958Z,87.49
2022-10-29T09:02:25.863Z,86.58
2022-10-29T09:03:25.782Z,86.49
2022-10-29T09:04:25.740Z,86.69
2022-10-29T09:05:25.755Z,86.69
2022-10-29T09:06:25.742Z,86.58
2022-10-29T09:07:25.728Z,86.79
2022-10-29T09:08:25.744Z,86.69
2022-10-29T09:09:25.683Z,86.58
2022-10-29T09:10:25.672Z,86.38
2022-10-29T09:11:25.658Z,86.29
2022-10-29T09:12:25.650Z,86.29
2022-10-29T09:13:25.658Z,86.29
2022-10-29T09:14:25.646Z,86.29
2022-10-29T09:15:25.633Z,85.98
2022-10-29T09:16:25.617Z,85.98
2022-10-29T09:17:25.585Z,85.98
2022-10-29T09:18:25.603Z,86.18
2022-10-29T09:19:25.608Z,86.69
2022-10-29T09:20:25.587Z,86.38
2022-10-29T09:21:25.546Z,85.98
2022-10-29T09:22:25.528Z,86.15
2022-10-29T09:23:25.565Z,85.74
2022-10-29T09:24:25.568Z,86.04
2022-10-29T09:25:25.515Z,85.84
2022-10-29T09:26:25.530Z,85.64
2022-10-29T09:27:25.476Z,85.90
2022-10-29T09:28:25.463Z,85.84
2022-10-29T09:29:25.503Z,85.64
2022-10-29T09:30:25.475Z,84.63
2022-10-29T09:31:25.434Z,85.00
2022-10-29T09:32:25.447Z,85.50
2022-10-29T09:33:25.444Z,85.60
2022-10-29T09:34:25.423Z,85.00
2022-10-29T09:35:25.406Z,85.70
2022-10-29T09:36:25.380Z,85.90
2022-10-29T09:37:25.372Z,85.10
2022-10-29T09:38:25.365Z,84.69
2022-10-29T09:39:27.184Z,85.03
2022-10-29T09:40:25.335Z,85.80
2022-10-29T09:41:25.345Z,85.70
2022-10-29T09:42:25.335Z,85.10
2022-10-29T09:43:25.301Z,85.00
2022-10-29T09:44:25.309Z,85.60
2022-10-29T09:45:25.300Z,85.70
2022-10-29T09:46:25.296Z,85.10
2022-10-29T09:47:25.274Z,85.00
2022-10-29T09:48:25.273Z,84.59
2022-10-29T09:49:25.272Z,84.59
2022-10-29T09:50:25.255Z,84.89
2022-10-29T09:51:25.230Z,84.89
2022-10-29T09:52:25.206Z,84.89
2022-10-29T09:53:25.199Z,85.00
2022-10-29T09:54:25.250Z,84.59
2022-10-29T09:55:25.236Z,84.89
2022-10-29T09:56:25.161Z,84.49
2022-10-29T09:57:25.162Z,84.49
2022-10-29T09:58:25.140Z,84.59
2022-10-29T09:59:25.843Z,84.89
2022-10-29T10:00:25.122Z,84.75
2022-10-29T10:01:25.204Z,84.55
2022-10-29T10:02:25.213Z,84.05
2022-10-29T10:03:25.097Z,83.84
2022-10-29T10:04:25.100Z,84.25
2022-10-29T10:05:25.092Z,84.85
2022-10-29T10:06:25.076Z,83.95
2022-10-29T10:07:25.058Z,84.15
2022-10-29T10:08:25.031Z,83.45
2022-10-29T10:09:25.052Z,84.35
2022-10-29T10:10:25.026Z,83.54
2022-10-29T10:11:25.004Z,84.15
2022-10-29T10:12:24.992Z,83.84
2022-10-29T10:13:27.352Z,83.61
2022-10-29T10:14:24.974Z,84.51
2022-10-29T10:15:25.038Z,84.15
2022-10-29T10:16:24.968Z,84.21
2022-10-29T10:17:24.942Z,83.61
2022-10-29T10:18:24.944Z,83.81
2022-10-29T10:19:24.937Z,83.11
2022-10-29T10:20:24.935Z,83.40
2022-10-29T10:21:24.899Z,83.37
2022-10-29T10:22:24.907Z,83.76
2022-10-29T10:23:24.882Z,82.36
2022-10-29T10:24:24.911Z,83.17
2022-10-29T10:25:24.958Z,83.76
2022-10-29T10:26:24.875Z,83.26
2022-10-29T10:27:24.826Z,83.03
2022-10-29T10:28:24.818Z,82.46
2022-10-29T10:29:24.805Z,82.42
2022-10-29T10:30:24.795Z,82.02
2022-10-29T10:31:24.797Z,81.56
2022-10-29T10:32:24.791Z,82.76
2022-10-29T10:33:24.786Z,81.96
2022-10-29T10:34:24.743Z,82.36
2022-10-29T10:35:24.804Z,82.06
2022-10-29T10:36:24.767Z,82.56
2022-10-29T10:37:24.721Z,82.26
2022-10-29T10:38:24.750Z,82.06
2022-10-29T10:39:24.717Z,82.56
2022-10-29T10:40:24.739Z,81.76
2022-10-29T10:41:24.696Z,82.36
2022-10-29T10:42:24.672Z,82.12
2022-10-29T10:43:24.661Z,82.66
2022-10-29T10:44:24.640Z,81.92
2022-10-29T10:45:24.774Z,81.92
2022-10-29T10:46:24.625Z,82.52
2022-10-29T10:47:24.634Z,82.56
2022-10-29T10:48:26.623Z,82.26
2022-10-29T10:49:24.583Z,82.66
2022-10-29T10:50:24.601Z,81.85
2022-10-29T10:51:24.574Z,82.26
2022-10-29T10:52:24.550Z,82.42
2022-10-29T10:53:24.540Z,82.36
2022-10-29T10:54:24.615Z,82.36
2022-10-29T10:55:24.591Z,82.36
2022-10-29T10:56:24.530Z,82.16
2022-10-29T10:57:24.515Z,82.06
2022-10-29T10:58:24.480Z,82.26
2022-10-29T10:59:24.509Z,82.06
2022-10-29T11:00:24.476Z,81.65
2022-10-29T11:01:24.549Z,82.26
2022-10-29T11:02:24.520Z,81.85
2022-10-29T11:04:24.451Z,81.96
2022-10-29T11:05:24.478Z,82.46
2022-10-29T11:06:24.421Z,81.85
2022-10-29T11:07:24.406Z,82.66
2022-10-29T11:08:24.398Z,82.26
2022-10-29T11:09:24.365Z,82.36
2022-10-29T11:10:24.370Z,82.36
2022-10-29T11:11:24.367Z,82.66
2022-10-29T11:12:24.372Z,82.86
2022-10-29T11:13:24.329Z,82.36
2022-10-29T11:14:24.333Z,82.76
2022-10-29T11:15:24.298Z,81.85
2022-10-29T11:16:24.301Z,82.26
2022-10-29T11:17:24.301Z,81.85
2022-10-29T11:18:24.276Z,81.96
2022-10-29T11:19:24.278Z,81.96
2022-10-29T11:20:24.249Z,81.96
2022-10-29T11:21:24.236Z,81.65
2022-10-29T11:22:24.260Z,82.56
2022-10-29T11:23:24.214Z,82.06
2022-10-29T11:24:24.207Z,82.26
2022-10-29T11:25:24.253Z,82.26
2022-10-29T11:26:24.272Z,81.96
2022-10-29T11:27:24.172Z,82.26
2022-10-29T11:28:24.180Z,82.22
2022-10-29T11:29:24.157Z,82.12
2022-10-29T11:30:24.153Z,82.42
2022-10-29T11:31:24.119Z,82.42
2022-10-29T11:32:24.137Z,81.62
2022-10-29T11:33:24.160Z,81.41
2022-10-29T11:34:24.119Z,81.92
2022-10-29T11:35:26.831Z,81.82
2022-10-29T11:36:24.117Z,81.12
2022-10-29T11:37:24.118Z,81.92
2022-10-29T11:38:24.094Z,81.62
2022-10-29T11:39:24.058Z,82.58
2022-10-29T11:40:24.070Z,81.58
2022-10-29T11:41:24.050Z,80.98
2022-10-29T11:42:24.043Z,81.07
2022-10-29T11:43:23.996Z,80.98
2022-10-29T11:44:24.043Z,82.78
2022-10-29T11:45:24.067Z,81.48
2022-10-29T11:46:23.968Z,81.68
2022-10-29T11:47:25.856Z,80.98
2022-10-29T11:49:23.979Z,80.83
2022-10-29T11:50:23.932Z,81.34
2022-10-29T11:51:23.928Z,82.34
2022-10-29T11:52:24.810Z,81.44
2022-10-29T11:53:23.909Z,81.14
2022-10-29T11:54:23.939Z,80.74
2022-10-29T11:55:24.003Z,80.94
2022-10-29T11:56:23.876Z,80.43
2022-10-29T11:57:23.876Z,80.63
2022-10-29T11:58:23.872Z,80.63
2022-10-29T11:59:23.824Z,80.94
2022-10-29T12:00:23.827Z,81.04
2022-10-29T12:01:23.844Z,80.80
2022-10-29T12:02:23.845Z,80.43
2022-10-29T12:03:23.805Z,80.10
2022-10-29T12:04:24.483Z,79.90
2022-10-29T12:05:23.788Z,79.60
2022-10-29T12:06:23.763Z,79.49
2022-10-29T12:07:23.723Z,79.49
2022-10-29T12:08:26.309Z,79.60
2022-10-29T12:09:23.712Z,79.60
2022-10-29T12:10:23.697Z,79.69
2022-10-29T12:11:23.702Z,79.49
2022-10-29T12:12:23.673Z,79.39
2022-10-29T12:13:23.673Z,80.10
2022-10-29T12:14:23.666Z,79.39
2022-10-29T12:15:23.735Z,79.09
2022-10-29T12:16:23.623Z,80.50
2022-10-29T12:17:23.670Z,80.19
2022-10-29T12:18:23.790Z,80.30
2022-10-29T12:19:23.617Z,79.80
2022-10-29T12:20:26.717Z,79.49
2022-10-29T12:21:23.589Z,79.55
2022-10-29T12:22:23.605Z,80.06
2022-10-29T12:23:23.565Z,79.55
2022-10-29T12:24:23.574Z,79.36
2022-10-29T12:25:23.627Z,79.16
2022-10-29T12:26:23.518Z,80.06
2022-10-29T12:27:23.523Z,79.49
2022-10-29T12:28:23.495Z,79.96
2022-10-29T12:29:23.492Z,79.25
2022-10-29T12:30:23.519Z,79.66
2022-10-29T12:31:23.482Z,79.60
2022-10-29T12:32:23.470Z,79.55
2022-10-29T12:33:24.315Z,80.06
2022-10-29T12:34:24.439Z,79.36
2022-10-29T12:35:23.461Z,79.66
2022-10-29T12:36:23.440Z,80.36
2022-10-29T12:37:23.399Z,79.16
2022-10-29T12:38:23.408Z,79.75
2022-10-29T12:39:23.386Z,79.55
2022-10-29T12:40:23.394Z,79.75
2022-10-29T12:41:23.446Z,78.75
2022-10-29T12:42:23.356Z,79.49
2022-10-29T12:43:23.348Z,79.75
2022-10-29T12:44:23.329Z,79.36
2022-10-29T12:45:23.314Z,78.96
2022-10-29T12:46:23.352Z,79.36
2022-10-29T12:47:23.301Z,79.46
2022-10-29T12:48:23.310Z,79.29
2022-10-29T12:49:23.316Z,79.80
2022-10-29T12:50:23.257Z,79.96
2022-10-29T12:51:23.274Z,78.66
2022-10-29T12:52:23.244Z,79.55
2022-10-29T12:53:23.231Z,79.55
2022-10-29T12:54:23.236Z,80.06
2022-10-29T12:55:23.228Z,79.46
2022-10-29T12:56:23.225Z,78.96
2022-10-29T12:57:23.231Z,78.66
2022-10-29T12:58:23.168Z,78.45
2022-10-29T12:59:23.161Z,78.85
2022-10-29T13:00:23.155Z,78.66
2022-10-29T13:01:23.324Z,78.75
2022-10-29T13:02:23.272Z,78.96
2022-10-29T13:03:23.206Z,78.75
2022-10-29T13:04:23.100Z,78.55
2022-10-29T13:05:23.112Z,78.66
2022-10-29T13:06:23.079Z,78.75
2022-10-29T13:07:23.657Z,79.25
2022-10-29T13:08:23.062Z,79.05
2022-10-29T13:09:23.042Z,78.61
2022-10-29T13:10:23.026Z,78.85
2022-10-29T13:11:23.019Z,78.61
2022-10-29T13:12:23.050Z,78.85
2022-10-29T13:13:23.017Z,78.61
2022-10-29T13:14:22.992Z,79.16
2022-10-29T13:15:22.985Z,77.72
2022-10-29T13:16:22.996Z,77.91
2022-10-29T13:17:22.972Z,78.45
2022-10-29T13:18:23.009Z,78.85
2022-10-29T13:19:22.981Z,78.96
2022-10-29T13:20:22.946Z,78.72
2022-10-29T13:21:22.950Z,78.55
2022-10-29T13:22:22.915Z,78.22
2022-10-29T13:23:22.939Z,77.81
2022-10-29T13:24:22.931Z,78.81
2022-10-29T13:25:22.863Z,78.72
2022-10-29T13:26:22.859Z,78.66
2022-10-29T13:27:22.844Z,78.31
2022-10-29T13:28:22.869Z,77.91
2022-10-29T13:29:22.857Z,78.02
2022-10-29T13:30:22.849Z,77.11
2022-10-29T13:31:22.806Z,77.91
2022-10-29T13:32:22.802Z,78.72
2022-10-29T13:33:22.791Z,78.42
2022-10-29T13:34:22.783Z,78.22
2022-10-29T13:35:22.789Z,77.91
2022-10-29T13:36:22.745Z,78.11
2022-10-29T13:37:22.771Z,78.02
2022-10-29T13:38:22.844Z,77.31
2022-10-29T13:39:22.724Z,77.41
2022-10-29T13:40:22.710Z,77.21
2022-10-29T13:41:22.708Z,77.21
2022-10-29T13:42:22.689Z,78.11
2022-10-29T13:43:22.706Z,77.72
2022-10-29T13:44:22.661Z,76.81
2022-10-29T13:45:22.648Z,77.51
2022-10-29T13:46:22.668Z,77.21
2022-10-29T13:47:22.677Z,77.41
2022-10-29T13:48:22.612Z,76.71
2022-10-29T13:49:22.615Z,76.41
2022-10-29T13:50:22.619Z,76.41
2022-10-29T13:51:22.650Z,76.51
2022-10-29T13:52:22.597Z,76.81
2022-10-29T13:53:22.572Z,76.31
2022-10-29T13:54:22.596Z,75.91
2022-10-29T13:55:22.541Z,76.51
2022-10-29T13:56:22.526Z,76.01
2022-10-29T13:57:22.531Z,76.01
2022-10-29T13:58:22.596Z,76.01
2022-10-29T13:59:22.544Z,76.41
2022-10-29T14:00:22.558Z,76.51
2022-10-29T14:01:22.647Z,76.51
2022-10-29T14:02:22.665Z,76.01
2022-10-29T14:03:22.522Z,76.21
2022-10-29T14:04:22.439Z,75.71
2022-10-29T14:05:22.476Z,76.41
2022-10-29T14:06:22.427Z,75.91
2022-10-29T14:07:22.411Z,76.31
2022-10-29T14:08:22.408Z,76.31
2022-10-29T14:09:22.404Z,75.91
2022-10-29T14:10:22.439Z,75.81
2022-10-29T14:11:22.390Z,75.81
2022-10-29T14:12:22.382Z,76.31
2022-10-29T14:13:24.632Z,76.11
2022-10-29T14:14:22.339Z,75.81
2022-10-29T14:15:22.311Z,75.81
2022-10-29T14:16:22.307Z,75.91
2022-10-29T14:17:22.307Z,76.01
2022-10-29T14:18:22.319Z,76.01
2022-10-29T14:19:22.283Z,75.81
2022-10-29T14:20:22.249Z,75.81
2022-10-29T14:21:22.243Z,75.81
2022-10-29T14:22:22.252Z,76.11
2022-10-29T14:23:22.229Z,76.81
2022-10-29T14:24:22.216Z,76.01
2022-10-29T14:25:22.218Z,76.04
2022-10-29T14:26:22.204Z,76.41
2022-10-29T14:27:22.217Z,76.25
2022-10-29T14:28:22.185Z,76.71
2022-10-29T14:29:22.244Z,76.11
2022-10-29T14:30:22.142Z,76.01
2022-10-29T14:31:22.155Z,76.41
2022-10-29T14:32:22.158Z,76.71
2022-10-29T14:33:22.114Z,76.54
2022-10-29T14:34:22.124Z,77.21
2022-10-29T14:35:22.086Z,76.45
2022-10-29T14:36:22.089Z,76.41
2022-10-29T14:37:22.132Z,76.54
2022-10-29T14:38:22.107Z,76.85
2022-10-29T14:39:23.648Z,76.75
2022-10-29T14:40:22.043Z,76.85
2022-10-29T14:41:22.104Z,76.95
2022-10-29T14:42:22.041Z,76.75
2022-10-29T14:43:22.029Z,76.34
2022-10-29T14:44:22.054Z,77.25
2022-10-29T14:45:22.045Z,76.85
2022-10-29T14:46:21.992Z,76.85
2022-10-29T14:47:21.966Z,77.75
2022-10-29T14:48:22.837Z,78.25
2022-10-29T14:49:21.992Z,77.65
2022-10-29T14:50:21.960Z,78.09
2022-10-29T14:51:21.920Z,78.19
2022-10-29T14:52:21.947Z,78.19
2022-10-29T14:53:21.894Z,78.49
2022-10-29T14:54:21.947Z,78.39
2022-10-29T14:55:21.882Z,78.79
2022-10-29T14:56:21.858Z,78.79
2022-10-29T14:57:21.860Z,78.89
2022-10-29T14:58:21.961Z,79.23
2022-10-29T14:59:25.017Z,78.83
2022-10-29T15:00:22.858Z,78.33
2022-10-29T15:01:21.936Z,79.33
2022-10-29T15:02:37.460Z,78.93
2022-10-29T15:03:22.832Z,78.89
2022-10-29T15:04:21.774Z,79.53
2022-10-29T15:05:21.778Z,78.73
2022-10-29T15:06:21.751Z,79.13
2022-10-29T15:07:21.780Z,78.93
2022-10-29T15:08:21.790Z,79.13
2022-10-29T15:09:21.741Z,79.43
2022-10-29T15:10:21.740Z,79.63
2022-10-29T15:11:21.699Z,79.47
2022-10-29T15:12:21.699Z,79.63
2022-10-29T15:13:21.723Z,79.83
2022-10-29T15:14:21.711Z,79.83
2022-10-29T15:15:21.662Z,79.83
2022-10-29T15:16:21.656Z,79.53
2022-10-29T15:17:21.652Z,79.87
2022-10-29T15:18:21.631Z,80.07
2022-10-29T15:19:21.638Z,79.73
2022-10-29T15:20:21.657Z,79.83
2022-10-29T15:21:21.615Z,79.87
2022-10-29T15:22:21.584Z,79.97
2022-10-29T15:23:21.582Z,79.67
2022-10-29T15:24:21.578Z,80.37
2022-10-29T15:25:21.562Z,79.77
2022-10-29T15:26:21.587Z,80.37
2022-10-29T15:27:21.550Z,79.67
2022-10-29T15:28:21.528Z,80.17
2022-10-29T15:29:21.586Z,80.47
2022-10-29T15:30:21.569Z,79.97
2022-10-29T15:31:21.521Z,79.67
2022-10-29T15:32:21.502Z,79.77
2022-10-29T15:33:21.466Z,80.17
2022-10-29T15:34:21.471Z,80.17
2022-10-29T15:35:21.452Z,80.51
2022-10-29T15:36:21.455Z,80.98
2022-10-29T15:37:21.511Z,80.21
2022-10-29T15:38:21.438Z,80.11
2022-10-29T15:39:21.424Z,79.97
2022-10-29T15:40:21.422Z,80.51
2022-10-29T15:41:21.390Z,80.71
2022-10-29T15:42:21.399Z,80.57
2022-10-29T15:43:21.361Z,80.71
2022-10-29T15:44:21.352Z,80.51
2022-10-29T15:45:21.347Z,80.11
2022-10-29T15:46:21.382Z,80.21
2022-10-29T15:47:22.327Z,80.37
2022-10-29T15:48:21.375Z,80.71
2022-10-29T15:49:21.302Z,80.91
2022-10-29T15:50:21.304Z,80.71
2022-10-29T15:51:21.272Z,80.21
2022-10-29T15:52:21.437Z,80.11
2022-10-29T15:53:21.274Z,80.31
2022-10-29T15:54:22.128Z,80.21
2022-10-29T15:55:26.366Z,80.91
2022-10-29T15:56:21.621Z,80.31
2022-10-29T15:57:21.210Z,80.81
2022-10-29T15:58:21.223Z,80.51
2022-10-29T15:59:21.184Z,80.41
2022-10-29T16:00:21.188Z,80.71
2022-10-29T16:01:21.350Z,80.81
2022-10-29T16:02:21.412Z,81.01
2022-10-29T16:03:21.158Z,80.71
2022-10-29T16:04:21.165Z,80.31
2022-10-29T16:05:21.127Z,80.11
2022-10-29T16:06:21.133Z,80.81
2022-10-29T16:07:21.110Z,80.81
2022-10-29T16:08:21.090Z,80.71
2022-10-29T16:09:21.107Z,80.71
2022-10-29T16:10:21.059Z,80.31
2022-10-29T16:11:21.108Z,80.81
2022-10-29T16:12:21.039Z,80.41
2022-10-29T16:13:21.043Z,81.01
2022-10-29T16:14:21.035Z,80.45
2022-10-29T16:15:21.086Z,80.81
2022-10-29T16:16:21.053Z,80.45
2022-10-29T16:17:21.032Z,80.45
2022-10-29T16:18:20.977Z,80.65
2022-10-29T16:19:20.985Z,80.75
2022-10-29T16:20:20.971Z,80.95
2022-10-29T16:21:20.977Z,81.05
2022-10-29T16:22:20.940Z,80.95
2022-10-29T16:23:21.000Z,80.65
2022-10-29T16:24:20.911Z,81.05
2022-10-29T16:25:20.916Z,80.45
2022-10-29T16:26:20.887Z,81.15
2022-10-29T16:27:20.922Z,80.95
2022-10-29T16:28:20.914Z,80.55
2022-10-29T16:29:20.889Z,81.05
2022-10-29T16:30:20.885Z,80.75
2022-10-29T16:31:20.861Z,80.85
2022-10-29T16:32:20.877Z,80.55
2022-10-29T16:33:20.872Z,80.95
2022-10-29T16:34:23.800Z,81.15
2022-10-29T16:35:20.823Z,80.95
2022-10-29T16:36:20.827Z,81.15
2022-10-29T16:37:20.781Z,80.95
2022-10-29T16:38:20.776Z,80.91
2022-10-29T16:39:20.769Z,80.55
2022-10-29T16:40:20.745Z,80.85
2022-10-29T16:41:21.019Z,80.91
2022-10-29T16:42:20.721Z,81.35
2022-10-29T16:43:20.753Z,81.26
2022-10-29T16:44:20.742Z,81.05
2022-10-29T16:45:20.831Z,80.85
2022-10-29T16:46:20.678Z,80.41
2022-10-29T16:47:20.885Z,81.15
2022-10-29T16:48:20.730Z,80.45
2022-10-29T16:49:20.654Z,80.75
2022-10-29T16:50:20.638Z,81.26
2022-10-29T16:51:20.617Z,80.71
2022-10-29T16:52:22.501Z,80.85
2022-10-29T16:53:20.627Z,80.45
2022-10-29T16:54:20.600Z,80.85
2022-10-29T16:55:20.616Z,80.65
2022-10-29T16:56:20.650Z,80.75
2022-10-29T16:57:20.635Z,80.75
2022-10-29T16:58:20.610Z,81.05
2022-10-29T16:59:20.576Z,80.45
2022-10-29T17:00:20.526Z,80.75
2022-10-29T17:02:20.513Z,81.05
2022-10-29T17:03:20.522Z,80.45
2022-10-29T17:04:20.541Z,80.95
2022-10-29T17:05:20.568Z,80.55
2022-10-29T17:06:20.465Z,80.75
2022-10-29T17:07:20.448Z,80.85
2022-10-29T17:08:20.478Z,80.85
2022-10-29T17:09:25.282Z,81.15
2022-10-29T17:10:20.490Z,81.05
2022-10-29T17:11:20.416Z,80.95
2022-10-29T17:12:20.385Z,80.39
2022-10-29T17:13:20.373Z,80.65
2022-10-29T17:14:20.437Z,80.39
2022-10-29T17:15:21.381Z,80.55
2022-10-29T17:16:20.366Z,80.25
2022-10-29T17:17:20.480Z,80.58
2022-10-29T17:18:20.341Z,80.79
2022-10-29T17:19:20.328Z,80.99
2022-10-29T17:20:20.333Z,80.79
2022-10-29T17:21:20.293Z,80.95
2022-10-29T17:22:20.461Z,80.89
2022-10-29T17:23:20.407Z,80.58
2022-10-29T17:24:20.258Z,80.69
2022-10-29T17:25:30.940Z,81.05
2022-10-29T17:26:20.360Z,80.39
2022-10-29T17:27:20.342Z,80.49
2022-10-29T17:28:20.233Z,80.75
2022-10-29T17:29:20.266Z,80.95
2022-10-29T17:30:20.297Z,80.99
2022-10-29T17:31:20.179Z,80.89